createdAt,value
2018-03-29T00:00:28.544Z,7.40
2018-03-29T00:03:39.413Z,7.40
2018-03-29T00:06:49.739Z,7.40
2018-03-29T00:09:59.915Z,7.40
2018-03-29T00:13:10.084Z,7.40
2018-03-29T00:16:21.459Z,7.30
2018-03-29T00:19:31.355Z,7.30
2018-03-29T00:22:41.504Z,7.30
2018-03-29T00:25:51.394Z,7.20
2018-03-29T00:29:01.316Z,7.20
2018-03-29T00:32:11.292Z,7.20
2018-03-29T00:35:21.206Z,7.10
2018-03-29T00:38:31.455Z,7.10
2018-03-29T00:41:41.389Z,7.00
2018-03-29T00:44:52.198Z,7.10
2018-03-29T00:48:02.051Z,7.00
2018-03-29T00:51:12.384Z,7.00
2018-03-29T00:54:23.014Z,6.90
2018-03-29T00:57:33.086Z,7.00
2018-03-29T01:00:42.884Z,6.90
2018-03-29T01:03:52.922Z,6.90
2018-03-29T01:07:03.119Z,6.90
2018-03-29T01:10:14.020Z,6.80
2018-03-29T01:13:24.543Z,6.80
2018-03-29T01:16:35.190Z,6.90
2018-03-29T01:19:45.380Z,6.90
2018-03-29T01:22:55.946Z,6.90
2018-03-29T01:26:06.307Z,6.90
2018-03-29T01:29:16.164Z,6.90
2018-03-29T01:32:37.333Z,6.60
2018-03-29T01:35:47.471Z,6.60
2018-03-29T01:38:57.534Z,6.40
2018-03-29T01:42:08.633Z,6.20
2018-03-29T01:45:18.982Z,6.20
2018-03-29T01:48:28.987Z,6.20
2018-03-29T01:51:39.391Z,6.10
2018-03-29T01:54:49.652Z,6.00
2018-03-29T01:58:18.955Z,6.00
2018-03-29T02:01:28.747Z,5.90
2018-03-29T02:04:39.160Z,5.90
2018-03-29T02:07:49.903Z,5.80
2018-03-29T02:11:00.087Z,5.80
2018-03-29T02:14:11.471Z,5.70
2018-03-29T02:17:21.568Z,5.70
2018-03-29T02:20:31.351Z,5.60
2018-03-29T02:23:41.633Z,5.60
2018-03-29T02:26:51.805Z,5.50
2018-03-29T02:30:01.990Z,5.40
2018-03-29T02:33:18.394Z,5.50
2018-03-29T02:36:29.244Z,5.40
2018-03-29T02:39:39.968Z,5.30
2018-03-29T02:42:50.254Z,5.40
2018-03-29T02:46:01.409Z,5.30
2018-03-29T02:49:11.552Z,5.30
2018-03-29T02:52:21.387Z,5.20
2018-03-29T02:55:31.786Z,5.20
2018-03-29T02:58:42.313Z,5.20
2018-03-29T03:01:52.560Z,5.10
2018-03-29T03:05:02.483Z,5.10
2018-03-29T03:08:12.422Z,5.10
2018-03-29T03:11:22.854Z,5.10
2018-03-29T03:14:33.069Z,5.10
2018-03-29T03:17:43.160Z,5.10
2018-03-29T03:20:53.815Z,5.10
2018-03-29T03:24:03.707Z,5.00
2018-03-29T03:27:14.041Z,5.00
2018-03-29T03:30:24.137Z,5.00
2018-03-29T03:33:34.758Z,5.00
2018-03-29T03:36:44.583Z,5.00
2018-03-29T03:39:54.785Z,5.00
2018-03-29T03:43:05.270Z,4.90
2018-03-29T03:46:15.545Z,4.90
2018-03-29T03:49:25.359Z,4.90
2018-03-29T03:52:35.393Z,4.80
2018-03-29T03:55:46.146Z,4.80
2018-03-29T03:58:56.185Z,4.80
2018-03-29T04:02:07.042Z,4.70
2018-03-29T04:05:17.647Z,4.60
2018-03-29T04:08:28.598Z,4.60
2018-03-29T04:11:40.427Z,4.60
2018-03-29T04:14:50.971Z,4.60
2018-03-29T04:18:00.868Z,4.50
2018-03-29T04:21:11.435Z,4.50
2018-03-29T04:24:21.969Z,4.40
2018-03-29T04:27:32.171Z,4.40
2018-03-29T04:30:42.349Z,4.40
2018-03-29T04:33:53.005Z,4.30
2018-03-29T04:37:03.164Z,4.30
2018-03-29T04:40:13.857Z,4.30
2018-03-29T04:43:24.206Z,4.30
2018-03-29T04:46:35.177Z,4.20
2018-03-29T04:49:45.498Z,4.20
2018-03-29T04:52:56.229Z,4.20
2018-03-29T04:56:06.888Z,4.10
2018-03-29T04:59:16.816Z,4.00
2018-03-29T05:02:27.203Z,4.00
2018-03-29T05:05:38.353Z,4.00
2018-03-29T05:08:48.365Z,3.90
2018-03-29T05:11:58.267Z,3.90
2018-03-29T05:15:08.304Z,3.90
2018-03-29T05:18:18.567Z,3.90
2018-03-29T05:21:28.746Z,3.90
2018-03-29T05:24:39.327Z,3.90
2018-03-29T05:27:53.870Z,3.90
2018-03-29T05:31:04.695Z,3.90
2018-03-29T05:34:14.937Z,3.90
2018-03-29T05:37:25.692Z,3.90
2018-03-29T05:40:36.318Z,3.90
2018-03-29T05:43:47.268Z,3.90
2018-03-29T05:46:58.350Z,3.80
2018-03-29T05:50:09.872Z,3.90
2018-03-29T05:53:20.851Z,3.80
2018-03-29T05:56:30.874Z,3.80
2018-03-29T05:59:41.691Z,3.80
2018-03-29T06:02:52.297Z,3.80
2018-03-29T06:06:02.386Z,3.80
2018-03-29T06:09:13.911Z,3.80
2018-03-29T06:12:25.347Z,3.80
2018-03-29T06:15:35.629Z,3.80
2018-03-29T06:18:45.778Z,3.80
2018-03-29T06:21:55.872Z,3.80
2018-03-29T06:25:06.678Z,3.80
2018-03-29T06:28:16.718Z,3.80
2018-03-29T06:31:26.547Z,3.80
2018-03-29T06:34:37.134Z,3.90
2018-03-29T06:37:47.155Z,3.90
2018-03-29T06:40:57.776Z,3.90
2018-03-29T06:44:07.928Z,3.90
2018-03-29T06:47:17.787Z,3.90
2018-03-29T06:50:28.281Z,4.00
2018-03-29T06:53:38.734Z,3.90
2018-03-29T06:56:48.910Z,4.00
2018-03-29T06:59:59.588Z,3.90
2018-03-29T07:03:10.266Z,3.90
2018-03-29T07:06:20.098Z,4.00
2018-03-29T07:09:30.094Z,4.00
2018-03-29T07:12:41.477Z,4.00
2018-03-29T07:15:51.708Z,4.00
2018-03-29T07:19:02.950Z,4.30
2018-03-29T07:22:19.200Z,4.30
2018-03-29T07:25:29.503Z,4.40
2018-03-29T07:28:39.257Z,4.50
2018-03-29T07:31:49.911Z,4.50
2018-03-29T07:35:00.182Z,4.50
2018-03-29T07:38:16.148Z,4.60
2018-03-29T07:41:25.968Z,4.50
2018-03-29T07:44:36.650Z,4.50
2018-03-29T07:47:46.829Z,4.50
2018-03-29T07:50:56.829Z,4.50
2018-03-29T07:54:06.610Z,4.50
2018-03-29T07:57:17.267Z,4.60
2018-03-29T08:00:27.491Z,4.60
2018-03-29T08:03:37.986Z,4.70
2018-03-29T08:06:48.656Z,4.70
2018-03-29T08:09:59.726Z,4.80
2018-03-29T08:13:10.242Z,4.70
2018-03-29T08:16:20.545Z,4.70
2018-03-29T08:19:36.830Z,4.70
2018-03-29T08:22:47.014Z,4.70
2018-03-29T08:26:09.878Z,4.70
2018-03-29T08:29:20.123Z,4.80
2018-03-29T08:32:36.112Z,4.80
2018-03-29T08:35:47.625Z,5.00
2018-03-29T08:38:58.549Z,4.90
2018-03-29T08:42:09.873Z,5.00
2018-03-29T08:45:19.851Z,5.00
2018-03-29T08:48:29.584Z,5.10
2018-03-29T08:51:40.124Z,5.10
2018-03-29T08:54:50.093Z,5.30
2018-03-29T08:58:00.489Z,5.40
2018-03-29T09:01:10.449Z,5.50
2018-03-29T09:04:21.932Z,5.60
2018-03-29T09:07:32.056Z,5.60
2018-03-29T09:10:42.173Z,5.50
2018-03-29T09:13:52.212Z,5.50
2018-03-29T09:17:02.021Z,5.50
2018-03-29T09:20:12.011Z,5.50
2018-03-29T09:23:22.625Z,5.40
2018-03-29T09:26:32.720Z,5.40
2018-03-29T09:29:43.283Z,5.40
2018-03-29T09:32:53.377Z,5.30
2018-03-29T09:36:03.724Z,5.40
2018-03-29T09:39:14.563Z,5.50
2018-03-29T09:42:24.792Z,5.50
2018-03-29T09:45:34.591Z,5.60
2018-03-29T09:48:45.026Z,5.80
2018-03-29T09:51:55.791Z,6.10
2018-03-29T09:55:07.023Z,5.90
2018-03-29T09:58:17.460Z,5.90
2018-03-29T10:01:27.119Z,6.10
2018-03-29T10:04:37.328Z,6.60
2018-03-29T10:07:47.681Z,6.60
2018-03-29T10:10:58.358Z,6.50
2018-03-29T10:14:08.260Z,6.50
2018-03-29T10:17:18.958Z,6.50
2018-03-29T10:20:29.685Z,6.40
2018-03-29T10:23:39.724Z,6.30
2018-03-29T10:26:50.399Z,6.50
2018-03-29T10:30:01.284Z,6.50
2018-03-29T10:33:11.742Z,6.60
2018-03-29T10:36:22.398Z,6.70
2018-03-29T10:39:32.710Z,6.60
2018-03-29T10:42:43.265Z,6.80
2018-03-29T10:45:53.893Z,6.80
2018-03-29T10:49:04.712Z,6.90
2018-03-29T10:52:14.380Z,6.70
2018-03-29T10:55:24.426Z,6.80
2018-03-29T10:58:34.927Z,7.10
2018-03-29T11:01:45.428Z,7.10
2018-03-29T11:04:55.833Z,7.00
2018-03-29T11:08:05.696Z,7.10
2018-03-29T11:11:15.931Z,7.00
2018-03-29T11:14:26.440Z,7.10
2018-03-29T11:17:36.403Z,7.10
2018-03-29T11:20:46.328Z,7.10
2018-03-29T11:23:57.102Z,7.10
2018-03-29T11:27:07.970Z,7.40
2018-03-29T11:30:18.371Z,7.40
2018-03-29T11:33:28.717Z,7.50
2018-03-29T11:36:39.341Z,7.40
2018-03-29T11:39:55.211Z,7.20
2018-03-29T11:43:06.262Z,7.00
2018-03-29T11:46:22.849Z,6.90
2018-03-29T11:53:08.774Z,7.00
2018-03-29T11:56:19.782Z,7.80
2018-03-29T11:59:29.611Z,7.80
2018-03-29T12:02:40.940Z,7.80
2018-03-29T12:05:51.510Z,7.80
2018-03-29T12:09:02.185Z,7.50
2018-03-29T12:12:12.218Z,7.40
2018-03-29T12:15:22.510Z,7.40
2018-03-29T12:18:32.774Z,7.40
2018-03-29T12:21:42.643Z,7.50
2018-03-29T12:24:52.705Z,7.60
2018-03-29T12:28:03.075Z,7.60
2018-03-29T12:31:12.974Z,7.40
2018-03-29T12:34:23.232Z,7.30
2018-03-29T12:37:34.257Z,7.40
2018-03-29T12:40:44.560Z,7.40
2018-03-29T12:43:54.483Z,7.50
2018-03-29T12:47:05.435Z,7.50
2018-03-29T12:50:16.292Z,7.50
2018-03-29T12:53:26.503Z,7.50
2018-03-29T12:56:48.578Z,7.40
2018-03-29T12:59:58.437Z,7.30
2018-03-29T13:03:09.288Z,7.50
2018-03-29T13:06:20.005Z,7.50
2018-03-29T13:09:30.067Z,7.40
2018-03-29T13:12:40.855Z,7.50
2018-03-29T13:15:51.124Z,7.50
2018-03-29T13:19:01.844Z,7.50
2018-03-29T13:22:11.931Z,7.50
2018-03-29T13:25:21.948Z,7.30
2018-03-29T13:28:32.089Z,7.30
2018-03-29T13:31:42.854Z,7.30
2018-03-29T13:34:52.906Z,7.20
2018-03-29T13:38:02.895Z,7.20
2018-03-29T13:41:12.841Z,7.20
2018-03-29T13:44:22.817Z,7.30
2018-03-29T13:47:33.593Z,7.10
2018-03-29T13:50:43.649Z,7.00
2018-03-29T13:53:54.553Z,7.10
2018-03-29T13:57:05.224Z,7.10
2018-03-29T14:00:16.022Z,7.00
2018-03-29T14:03:26.618Z,7.20
2018-03-29T14:06:37.027Z,7.10
2018-03-29T14:09:47.828Z,7.10
2018-03-29T14:12:58.935Z,7.00
2018-03-29T14:16:09.738Z,7.20
2018-03-29T14:19:20.172Z,7.10
2018-03-29T14:22:30.367Z,7.20
2018-03-29T14:25:40.469Z,7.30
2018-03-29T14:28:50.549Z,7.30
2018-03-29T14:32:00.308Z,7.40
2018-03-29T14:35:11.686Z,7.80
2018-03-29T14:38:21.551Z,8.10
2018-03-29T14:41:31.779Z,8.70
2018-03-29T14:44:49.127Z,9.00
2018-03-29T14:47:59.885Z,9.00
2018-03-29T14:51:09.972Z,9.00
2018-03-29T14:54:20.243Z,8.90
2018-03-29T14:57:30.152Z,8.60
2018-03-29T15:00:40.202Z,8.70
2018-03-29T15:03:50.288Z,8.40
2018-03-29T15:07:00.122Z,8.20
2018-03-29T15:10:10.337Z,8.10
2018-03-29T15:13:20.576Z,8.00
2018-03-29T15:16:31.185Z,8.00
2018-03-29T15:19:41.062Z,8.10
2018-03-29T15:22:52.029Z,7.90
2018-03-29T15:26:01.994Z,7.90
2018-03-29T15:29:12.865Z,7.70
2018-03-29T15:32:23.491Z,7.70
2018-03-29T15:35:33.696Z,7.70
2018-03-29T15:38:43.730Z,7.70
2018-03-29T15:41:53.704Z,7.70
2018-03-29T15:45:03.848Z,7.70
2018-03-29T15:48:14.076Z,7.80
2018-03-29T15:51:24.800Z,7.80
2018-03-29T15:54:34.893Z,8.10
2018-03-29T15:57:44.983Z,8.80
2018-03-29T16:00:55.427Z,8.80
2018-03-29T16:04:05.878Z,8.50
2018-03-29T16:07:17.462Z,8.00
2018-03-29T16:10:28.582Z,7.80
2018-03-29T16:13:38.436Z,7.80
2018-03-29T16:16:48.277Z,7.70
2018-03-29T16:19:58.249Z,7.60
2018-03-29T16:23:08.102Z,7.60
2018-03-29T16:26:18.512Z,7.40
2018-03-29T16:29:28.863Z,7.40
2018-03-29T16:32:38.846Z,7.40
2018-03-29T16:35:49.897Z,7.30
2018-03-29T16:39:00.108Z,7.30
2018-03-29T16:42:10.208Z,7.20
2018-03-29T16:45:20.271Z,7.20
2018-03-29T16:48:30.420Z,7.20
2018-03-29T16:51:41.051Z,7.20
2018-03-29T16:54:51.602Z,7.10
2018-03-29T16:58:02.041Z,7.10
2018-03-29T17:01:12.779Z,7.10
2018-03-29T17:04:22.875Z,7.00
2018-03-29T17:07:34.178Z,7.00
2018-03-29T17:10:44.765Z,7.00
2018-03-29T17:13:55.227Z,7.00
2018-03-29T17:17:05.091Z,6.90
2018-03-29T17:20:15.882Z,6.90
2018-03-29T17:23:25.754Z,6.70
2018-03-29T17:26:36.418Z,6.70
2018-03-29T17:29:46.181Z,6.60
2018-03-29T17:32:55.944Z,6.50
2018-03-29T17:36:06.096Z,6.50
2018-03-29T17:39:16.896Z,6.30
2018-03-29T17:42:26.692Z,6.30
2018-03-29T17:45:36.500Z,6.20
2018-03-29T17:48:46.534Z,6.20
2018-03-29T17:51:56.788Z,6.10
2018-03-29T17:55:07.381Z,6.10
2018-03-29T17:58:18.451Z,6.10
2018-03-29T18:01:28.942Z,6.00
2018-03-29T18:04:38.740Z,6.00
2018-03-29T18:07:49.661Z,5.90
2018-03-29T18:11:00.816Z,5.80
2018-03-29T18:14:10.996Z,5.80
2018-03-29T18:17:21.086Z,5.80
2018-03-29T18:20:30.871Z,5.80
2018-03-29T18:23:40.837Z,5.80
2018-03-29T18:26:51.458Z,5.70
2018-03-29T18:30:01.309Z,5.70
2018-03-29T18:33:11.215Z,5.70
2018-03-29T18:36:21.880Z,5.60
2018-03-29T18:39:31.724Z,5.60
2018-03-29T18:42:41.549Z,5.50
2018-03-29T18:45:51.884Z,5.50
2018-03-29T18:49:02.095Z,5.40
2018-03-29T18:52:12.571Z,5.30
2018-03-29T18:55:22.537Z,5.30
2018-03-29T18:58:32.777Z,5.40
2018-03-29T19:01:43.333Z,5.40
2018-03-29T19:04:53.343Z,5.30
2018-03-29T19:08:03.544Z,5.20
2018-03-29T19:11:13.968Z,5.20
2018-03-29T19:14:24.246Z,5.20
2018-03-29T19:17:34.327Z,5.10
2018-03-29T19:20:44.671Z,5.10
2018-03-29T19:23:55.351Z,5.10
2018-03-29T19:27:05.286Z,5.00
2018-03-29T19:30:15.617Z,5.00
2018-03-29T19:33:26.356Z,4.90
2018-03-29T19:36:36.878Z,5.10
2018-03-29T19:39:46.767Z,5.00
2018-03-29T19:42:57.569Z,5.10
2018-03-29T19:46:11.836Z,5.10
2018-03-29T19:49:22.360Z,5.10
2018-03-29T19:52:32.749Z,5.10
2018-03-29T19:55:44.518Z,5.10
2018-03-29T19:58:55.046Z,5.10
2018-03-29T20:02:05.808Z,4.80
2018-03-29T20:05:15.878Z,4.80
2018-03-29T20:08:26.306Z,4.80
2018-03-29T20:11:36.141Z,4.70
2018-03-29T20:14:46.909Z,4.60
2018-03-29T20:17:58.043Z,4.30
2018-03-29T20:21:08.463Z,4.30
2018-03-29T20:24:18.921Z,4.40
2018-03-29T20:27:28.846Z,4.20
2018-03-29T20:30:39.563Z,4.30
2018-03-29T20:33:51.079Z,4.20
2018-03-29T20:37:01.036Z,4.20
2018-03-29T20:40:10.942Z,4.10
2018-03-29T20:43:21.764Z,3.70
2018-03-29T20:46:32.111Z,3.70
2018-03-29T20:49:42.513Z,3.70
2018-03-29T20:52:53.214Z,3.70
2018-03-29T20:56:04.287Z,3.70
2018-03-29T20:59:14.323Z,3.70
2018-03-29T21:02:24.663Z,3.40
2018-03-29T21:05:34.430Z,3.40
2018-03-29T21:08:45.143Z,3.30
2018-03-29T21:11:55.643Z,3.20
2018-03-29T21:15:06.798Z,3.20
2018-03-29T21:18:17.195Z,3.10
2018-03-29T21:21:28.348Z,3.00
2018-03-29T21:24:38.918Z,3.00
2018-03-29T21:27:48.752Z,2.90
2018-03-29T21:30:58.934Z,2.80
2018-03-29T21:34:09.553Z,2.80
2018-03-29T21:37:20.241Z,2.70
2018-03-29T21:40:30.175Z,2.70
2018-03-29T21:43:41.374Z,2.60
2018-03-29T21:46:52.046Z,2.60
2018-03-29T21:50:01.944Z,2.60
2018-03-29T21:53:12.604Z,2.60
2018-03-29T21:56:23.140Z,2.50
2018-03-29T21:59:33.896Z,2.40
2018-03-29T22:02:44.127Z,2.40
2018-03-29T22:05:54.041Z,2.30
2018-03-29T22:09:03.525Z,2.40
2018-03-29T22:12:14.165Z,2.40
2018-03-29T22:15:23.967Z,2.30
2018-03-29T22:18:34.656Z,2.30
2018-03-29T22:21:45.121Z,2.20
2018-03-29T22:24:55.418Z,2.20
2018-03-29T22:28:05.586Z,2.20
2018-03-29T22:31:15.734Z,2.20
2018-03-29T22:34:25.600Z,2.20
2018-03-29T22:37:35.545Z,2.20
2018-03-29T22:40:45.828Z,2.10
2018-03-29T22:43:55.729Z,2.10
2018-03-29T22:47:05.644Z,2.10
2018-03-29T22:50:15.602Z,2.10
2018-03-29T22:53:26.534Z,2.10
2018-03-29T22:56:36.784Z,2.00
2018-03-29T22:59:46.963Z,2.00
2018-03-29T23:02:57.610Z,2.10
2018-03-29T23:06:07.762Z,2.00
2018-03-29T23:09:17.880Z,1.90
2018-03-29T23:12:29.905Z,2.00
2018-03-29T23:15:40.395Z,1.90
2018-03-29T23:18:51.217Z,1.90
2018-03-29T23:22:01.112Z,1.80
2018-03-29T23:25:11.597Z,1.90
2018-03-29T23:28:22.593Z,1.80
2018-03-29T23:31:32.939Z,1.80
2018-03-29T23:34:43.100Z,1.80
2018-03-29T23:37:52.912Z,1.80
2018-03-29T23:41:03.392Z,1.80
2018-03-29T23:44:14.546Z,1.80
2018-03-29T23:47:24.632Z,1.80
2018-03-29T23:50:34.533Z,1.80
2018-03-29T23:53:45.201Z,1.70
2018-03-29T23:56:55.738Z,1.70
